Time;durP1;ratioP1;P1;durP2;ratioP2;P2;SDS_P1;SDS_P2;PMS_P1;PMS_P2;Temp;Humidity;BMP_temperature;BMP_pressure;BME280_temperature;BME280_humidity;BME280_pressure;Samples;Min_cycle;Max_cycle;Signal;HPM_P1;HPM_P2
2023/10/27 00:00:12;;;;;;;1.00;1.00;;;;;;;-3.78;93.51;98518.75;4804850;29;20532;-80
2023/10/27 00:02:39;;;;;;;0.93;0.93;;;;;;;-3.82;93.69;98515.63;4820843;29;20078;-81
2023/10/27 00:05:07;;;;;;;0.82;0.82;;;;;;;-3.83;93.57;98518.41;4824190;29;20524;-80
2023/10/27 00:07:34;;;;;;;0.80;0.80;;;;;;;-3.83;93.72;98516.59;4808928;29;20061;-81
2023/10/27 00:10:03;;;;;;;0.85;0.85;;;;;;;-3.85;93.85;98512.47;4824756;29;20617;-81
2023/10/27 00:12:30;;;;;;;1.30;1.23;;;;;;;-3.84;93.64;98508.88;4824633;29;20133;-81
2023/10/27 00:14:57;;;;;;;0.70;0.70;;;;;;;-3.81;93.85;98496.16;4824717;29;20540;-81
2023/10/27 00:17:24;;;;;;;0.80;0.80;;;;;;;-3.75;93.89;98502.56;4823254;29;20062;-80
2023/10/27 00:19:51;;;;;;;0.98;0.98;;;;;;;-3.74;93.85;98497.16;4824726;29;20429;-82
2023/10/27 00:22:18;;;;;;;0.88;0.88;;;;;;;-3.77;93.79;98486.13;4824522;29;20062;-80
2023/10/27 00:24:45;;;;;;;0.90;0.90;;;;;;;-3.79;93.96;98488.09;4808903;29;20061;-81
2023/10/27 00:27:12;;;;;;;1.00;1.00;;;;;;;-3.79;93.80;98496.00;4808138;29;20463;-81
2023/10/27 00:29:40;;;;;;;0.80;0.80;;;;;;;-3.79;93.59;98499.47;4824429;29;20058;-80
2023/10/27 00:32:07;;;;;;;0.82;0.82;;;;;;;-3.79;93.68;98496.00;4808431;29;20084;-80
2023/10/27 00:34:34;;;;;;;0.80;0.80;;;;;;;-3.78;93.73;98492.38;4824475;29;20089;-80
2023/10/27 00:37:01;;;;;;;0.90;0.90;;;;;;;-3.73;93.56;98490.88;4808958;29;20043;-81
2023/10/27 00:39:28;;;;;;;1.08;1.08;;;;;;;-3.71;93.43;98488.91;4808662;29;20065;-81
2023/10/27 00:41:55;;;;;;;0.80;0.80;;;;;;;-3.77;93.37;98475.56;4824853;29;20054;-81
2023/10/27 00:44:22;;;;;;;0.98;0.98;;;;;;;-3.77;93.32;98488.75;4824521;29;20418;-81
2023/10/27 00:46:51;;;;;;;0.80;0.80;;;;;;;-3.73;92.87;98495.34;4823226;29;20050;-82
2023/10/27 00:49:18;;;;;;;0.70;0.70;;;;;;;-3.75;92.91;98477.06;4807853;29;20064;-81
2023/10/27 00:51:49;;;;;;;1.10;1.10;;;;;;;-3.74;92.85;98478.69;4823145;29;20058;-83
2023/10/27 00:54:18;;;;;;;0.93;0.93;;;;;;;-3.76;93.06;98469.28;4807760;29;20065;-81
2023/10/27 00:56:45;;;;;;;1.00;1.00;;;;;;;-3.74;92.91;98464.69;4823209;29;20092;-82
2023/10/27 00:59:12;;;;;;;0.90;0.90;;;;;;;-3.73;92.85;98467.13;4808054;29;20058;-82
2023/10/27 01:01:42;;;;;;;0.73;0.73;;;;;;;-3.75;92.78;98465.66;4792665;29;20058;-82
2023/10/27 01:04:10;;;;;;;0.88;0.88;;;;;;;-3.77;92.72;98457.13;4807978;29;20057;-82
2023/10/27 01:06:37;;;;;;;1.08;1.08;;;;;;;-3.73;92.74;98453.13;4824059;29;20078;-82
2023/10/27 01:09:04;;;;;;;0.90;0.90;;;;;;;-3.70;92.67;98447.53;4807894;29;20065;-82
2023/10/27 01:11:32;;;;;;;0.93;0.93;;;;;;;-3.70;92.53;98455.44;4823833;29;20046;-81
2023/10/27 01:14:00;;;;;;;0.82;0.82;;;;;;;-3.77;92.57;98446.56;4822934;29;20205;-81
2023/10/27 01:16:27;;;;;;;0.80;0.80;;;;;;;-3.76;92.71;98453.47;4821850;29;20078;-82
2023/10/27 01:18:55;;;;;;;0.82;0.82;;;;;;;-3.76;92.57;98438.47;4823990;29;20062;-82
2023/10/27 01:21:22;;;;;;;0.75;0.75;;;;;;;-3.74;92.67;98440.97;4823832;29;20082;-82
2023/10/27 01:23:49;;;;;;;1.08;1.08;;;;;;;-3.74;92.57;98440.97;4807640;29;20082;-80
2023/10/27 01:26:17;;;;;;;1.00;1.00;;;;;;;-3.73;92.63;98427.59;4807134;29;20046;-82
2023/10/27 01:28:44;;;;;;;1.00;1.00;;;;;;;-3.77;92.56;98412.28;4823628;29;20506;-81
2023/10/27 01:31:11;;;;;;;0.93;0.93;;;;;;;-3.78;92.76;98429.09;4806906;29;20538;-82
2023/10/27 01:33:38;;;;;;;0.65;0.65;;;;;;;-3.76;92.93;98420.00;4823435;29;20058;-81
2023/10/27 01:36:06;;;;;;;0.80;0.80;;;;;;;-3.77;92.90;98420.19;4823674;29;20054;-81
2023/10/27 01:38:33;;;;;;;0.90;0.90;;;;;;;-3.79;93.18;98419.53;4792692;29;20403;-83
2023/10/27 01:41:00;;;;;;;0.70;0.70;;;;;;;-3.76;92.97;98413.91;4822884;29;20050;-82
2023/10/27 01:43:27;;;;;;;0.70;0.70;;;;;;;-3.77;93.14;98420.19;4822835;29;20051;-82
2023/10/27 01:45:56;;;;;;;0.90;0.90;;;;;;;-3.75;93.28;98418.19;4824573;29;20059;-81
2023/10/27 01:48:23;;;;;;;0.95;0.95;;;;;;;-3.74;93.47;98404.84;4825086;29;20137;-82
2023/10/27 01:50:51;;;;;;;0.70;0.70;;;;;;;-3.74;93.50;98402.22;4841756;29;20501;-82
2023/10/27 01:53:18;;;;;;;0.90;0.90;;;;;;;-3.74;93.45;98394.31;4825720;29;20054;-82
2023/10/27 01:55:45;;;;;;;1.08;1.08;;;;;;;-3.75;93.62;98397.09;4810799;29;20072;-82
2023/10/27 01:58:12;;;;;;;1.00;1.00;;;;;;;-3.73;93.62;98389.84;4825129;29;20102;-81
2023/10/27 02:00:39;;;;;;;0.73;0.73;;;;;;;-3.76;93.64;98391.00;4813708;29;20089;-82
2023/10/27 02:03:06;;;;;;;0.82;0.82;;;;;;;-3.80;93.71;98380.97;4803756;29;20047;-81
2023/10/27 02:05:34;;;;;;;0.80;0.80;;;;;;;-3.79;94.22;98385.25;4803593;29;20054;-82
2023/10/27 02:08:02;;;;;;;0.73;0.73;;;;;;;-3.77;94.07;98383.28;4787789;29;20059;-83
2023/10/27 02:10:29;;;;;;;0.88;0.88;;;;;;;-3.77;94.25;98372.72;4787323;29;20062;-82
2023/10/27 02:12:56;;;;;;;1.05;1.05;;;;;;;-3.75;94.37;98373.38;4801406;29;20059;-82
2023/10/27 02:15:23;;;;;;;0.80;0.80;;;;;;;-3.75;94.49;98374.22;4786193;30;20051;-81
2023/10/27 02:17:51;;;;;;;0.93;0.93;;;;;;;-3.76;94.39;98367.28;4785914;30;20054;-82
2023/10/27 02:20:38;;;;;;;0.88;0.88;;;;;;;-3.75;94.64;98366.31;4773387;30;20108;-81
2023/10/27 02:23:05;;;;;;;0.80;0.80;;;;;;;-3.80;94.91;98362.50;4785706;29;20573;-82
2023/10/27 02:25:32;;;;;;;0.80;0.80;;;;;;;-3.73;94.60;98371.38;4785268;30;20209;-83
2023/10/27 02:28:00;;;;;;;0.85;0.85;;;;;;;-3.71;94.76;98364.13;4786253;29;20063;-82
2023/10/27 02:30:28;;;;;;;0.90;0.90;;;;;;;-3.67;94.90;98360.19;4770137;30;20090;-80
2023/10/27 02:32:55;;;;;;;0.90;0.90;;;;;;;-3.66;94.84;98363.63;4789824;29;20062;-82
2023/10/27 02:35:25;;;;;;;1.00;1.00;;;;;;;-3.74;94.90;98346.84;4803021;29;20521;-82
2023/10/27 02:37:56;;;;;;;0.93;0.93;;;;;;;-3.79;95.26;98327.25;4803396;29;20058;-81
2023/10/27 02:40:23;;;;;;;0.98;0.98;;;;;;;-3.74;94.88;98341.56;4803218;29;20095;-82
2023/10/27 02:42:50;;;;;;;0.90;0.90;;;;;;;-3.69;94.83;98348.97;4803471;29;20054;-81
2023/10/27 02:45:17;;;;;;;0.85;0.85;;;;;;;-3.67;94.96;98340.88;4804175;29;20559;-81
2023/10/27 02:47:44;;;;;;;0.63;0.63;;;;;;;-3.66;95.07;98343.34;4804352;29;20346;-82
2023/10/27 02:50:12;;;;;;;0.80;0.80;;;;;;;-3.65;95.03;98342.34;4802704;29;20343;-82
2023/10/27 02:52:39;;;;;;;0.95;0.95;;;;;;;-3.64;95.10;98349.28;4788349;29;20050;-81
2023/10/27 02:55:06;;;;;;;1.08;1.08;;;;;;;-3.63;94.92;98339.56;4804689;29;20051;-80
2023/10/27 02:57:33;;;;;;;0.80;0.80;;;;;;;-3.64;94.94;98343.19;4803876;29;20051;-80
2023/10/27 03:00:02;;;;;;;0.98;0.98;;;;;;;-3.64;95.12;98336.09;4802569;29;20514;-81
2023/10/27 03:02:30;;;;;;;1.00;1.00;;;;;;;-3.64;95.26;98330.00;4769726;29;20055;-81
2023/10/27 03:04:58;;;;;;;1.10;1.10;;;;;;;-3.65;94.99;98337.06;4804132;29;20114;-81
2023/10/27 03:07:25;;;;;;;0.82;0.82;;;;;;;-3.67;95.17;98336.44;4787183;29;20061;-80
2023/10/27 03:09:52;;;;;;;1.10;1.10;;;;;;;-3.67;95.24;98332.97;4802663;29;20055;-80
2023/10/27 03:12:20;;;;;;;1.00;1.00;;;;;;;-3.67;95.24;98327.69;4804254;29;20051;-80
2023/10/27 03:14:48;;;;;;;0.80;0.80;;;;;;;-3.66;95.31;98321.44;4788526;29;20097;-80
2023/10/27 03:17:15;;;;;;;1.10;1.10;;;;;;;-3.64;95.24;98325.53;4802622;29;20178;-80
2023/10/27 03:19:49;;;;;;;1.10;1.10;;;;;;;-3.61;95.24;98317.28;4803071;29;20058;-80
2023/10/27 03:22:16;;;;;;;1.02;1.02;;;;;;;-3.64;95.36;98315.00;4803926;29;20051;-81
2023/10/27 03:24:45;;;;;;;0.90;0.90;;;;;;;-3.66;95.43;98303.78;4802853;29;20089;-80
2023/10/27 03:27:12;;;;;;;0.98;0.98;;;;;;;-3.59;95.46;98343.50;4776027;30;20055;-82
2023/10/27 03:29:39;;;;;;;1.00;1.00;;;;;;;-3.61;95.27;98345.47;4785731;29;20527;-82
2023/10/27 03:32:07;;;;;;;0.70;0.70;;;;;;;-3.63;95.32;98337.72;4781998;30;20051;-81
2023/10/27 03:34:34;;;;;;;0.90;0.90;;;;;;;-3.60;95.24;98342.66;4785920;29;20144;-80
2023/10/27 03:37:02;;;;;;;0.95;0.95;;;;;;;-3.58;95.27;98334.59;4784746;30;20051;-80
2023/10/27 03:39:29;;;;;;;0.82;0.82;;;;;;;-3.58;95.38;98324.03;4783013;29;20059;-83
2023/10/27 03:41:57;;;;;;;0.85;0.85;;;;;;;-3.60;95.30;98316.28;4778292;30;20054;-82
2023/10/27 03:44:24;;;;;;;1.05;1.05;;;;;;;-3.62;95.23;98304.25;4778118;30;20047;-81
2023/10/27 03:46:51;;;;;;;1.00;1.00;;;;;;;-3.61;95.44;98309.38;4778324;30;20532;-81
2023/10/27 03:49:18;;;;;;;1.00;1.00;;;;;;;-3.59;95.63;98301.31;4778242;30;20062;-85
2023/10/27 03:51:45;;;;;;;1.13;1.13;;;;;;;-3.59;95.66;98303.94;4770073;30;20067;-83
2023/10/27 03:54:12;;;;;;;1.30;1.20;;;;;;;-3.60;95.56;98303.09;4771081;30;20059;-83
2023/10/27 03:56:39;;;;;;;1.08;1.08;;;;;;;-3.62;95.69;98294.56;4770236;30;20589;-81
2023/10/27 03:59:07;;;;;;;1.10;1.10;;;;;;;-3.64;95.87;98275.44;4769715;30;20055;-81
2023/10/27 04:01:34;;;;;;;0.90;0.90;;;;;;;-3.58;96.04;98282.66;4769376;30;20423;-81
2023/10/27 04:04:02;;;;;;;0.80;0.80;;;;;;;-3.56;96.25;98267.47;4788834;29;20142;-80
2023/10/27 04:06:30;;;;;;;0.80;0.80;;;;;;;-3.55;96.15;98255.09;4789192;29;20081;-81
2023/10/27 04:08:58;;;;;;;0.90;0.90;;;;;;;-3.58;95.93;98271.28;4788589;29;20133;-83
2023/10/27 04:11:25;;;;;;;1.00;1.00;;;;;;;-3.59;96.08;98256.47;4789167;30;20051;-85
2023/10/27 04:13:52;;;;;;;0.90;0.90;;;;;;;-3.58;96.12;98266.00;4795971;30;20055;-86
2023/10/27 04:16:19;;;;;;;0.70;0.70;;;;;;;-3.59;96.31;98265.19;4791445;29;20062;-84
2023/10/27 04:18:46;;;;;;;1.08;1.08;;;;;;;-3.56;96.39;98262.19;4788746;29;20059;-83
2023/10/27 04:21:14;;;;;;;0.90;0.90;;;;;;;-3.56;96.45;98254.28;4772737;30;20106;-83
2023/10/27 04:23:41;;;;;;;1.10;1.10;;;;;;;-3.59;96.47;98254.63;4788229;29;20062;-84
2023/10/27 04:26:08;;;;;;;1.13;1.13;;;;;;;-3.54;96.78;98251.50;4787859;30;20128;-82
2023/10/27 04:28:35;;;;;;;1.00;1.00;;;;;;;-3.59;96.69;98227.44;4788563;29;20051;-85
2023/10/27 04:31:03;;;;;;;1.30;1.20;;;;;;;-3.59;96.69;98228.25;4788529;29;20067;-84
2023/10/27 04:33:30;;;;;;;1.02;1.02;;;;;;;-3.60;96.98;98237.16;4787506;30;20051;-85
2023/10/27 04:35:57;;;;;;;0.80;0.80;;;;;;;-3.53;96.82;98237.28;4787044;30;20123;-84
2023/10/27 04:38:24;;;;;;;0.90;0.90;;;;;;;-3.50;96.95;98242.22;4788399;29;20422;-82
2023/10/27 04:40:52;;;;;;;0.88;0.88;;;;;;;-3.51;96.81;98246.69;4788188;30;20070;-83
2023/10/27 04:43:21;;;;;;;0.90;0.90;;;;;;;-3.54;96.75;98241.75;4787120;30;20062;-83
2023/10/27 04:45:48;;;;;;;0.80;0.80;;;;;;;-3.47;96.75;98235.78;4787612;29;20075;-84
2023/10/27 04:48:15;;;;;;;1.00;1.00;;;;;;;-3.46;96.85;98240.06;4788080;29;20086;-83
2023/10/27 04:50:42;;;;;;;0.90;0.90;;;;;;;-3.45;96.98;98231.97;4787197;29;20534;-83
2023/10/27 04:53:09;;;;;;;1.00;1.00;;;;;;;-3.44;96.84;98225.72;4786156;30;20085;-84
2023/10/27 04:55:36;;;;;;;0.98;0.98;;;;;;;-3.39;96.91;98241.00;4786360;30;20051;-83
2023/10/27 04:58:04;;;;;;;1.05;1.05;;;;;;;-3.37;96.86;98231.09;4786944;30;20057;-83
2023/10/27 05:00:31;;;;;;;1.17;1.17;;;;;;;-3.34;96.68;98225.47;4795202;29;20063;-83
2023/10/27 05:02:58;;;;;;;1.08;1.08;;;;;;;-3.37;96.39;98233.72;4805783;29;20073;-84
2023/10/27 05:05:25;;;;;;;0.80;0.80;;;;;;;-3.35;96.28;98218.56;4806382;29;20047;-83
2023/10/27 05:07:55;;;;;;;0.90;0.90;;;;;;;-3.41;96.48;98206.06;4790297;29;20054;-83
2023/10/27 05:10:22;;;;;;;1.02;1.02;;;;;;;-3.37;96.47;98191.50;4790771;29;20149;-84
2023/10/27 05:12:50;;;;;;;0.60;0.60;;;;;;;-3.37;96.21;98194.16;4792946;29;20067;-83
2023/10/27 05:15:17;;;;;;;1.10;1.10;;;;;;;-3.35;96.59;98197.44;4777161;29;20100;-84
2023/10/27 05:17:46;;;;;;;1.10;1.10;;;;;;;-3.23;96.44;98206.59;4790890;29;20590;-83
2023/10/27 05:20:13;;;;;;;1.00;1.00;;;;;;;-3.30;96.38;98189.81;4815845;29;20465;-85
2023/10/27 05:22:41;;;;;;;1.00;1.00;;;;;;;-3.24;96.38;98198.84;4820044;29;20059;-84
2023/10/27 05:25:08;;;;;;;1.00;1.00;;;;;;;-3.21;96.28;98194.06;4814925;29;20455;-84
2023/10/27 05:27:36;;;;;;;0.95;0.95;;;;;;;-3.17;96.21;98200.59;4795569;29;20046;-82
2023/10/27 05:30:04;;;;;;;0.90;0.90;;;;;;;-3.13;96.10;98196.63;4799061;29;20077;-81
2023/10/27 05:32:33;;;;;;;0.90;0.90;;;;;;;-3.14;95.88;98191.50;4797349;29;20050;-82
2023/10/27 05:35:01;;;;;;;0.82;0.82;;;;;;;-3.12;95.95;98197.44;4793546;29;20062;-81
2023/10/27 05:37:32;;;;;;;0.90;0.90;;;;;;;-3.17;96.09;98190.03;4804819;29;20057;-82
2023/10/27 05:40:02;;;;;;;0.95;0.95;;;;;;;-3.19;95.99;98189.44;4806107;29;20046;-83
2023/10/27 05:42:31;;;;;;;0.93;0.93;;;;;;;-3.16;96.07;98196.97;4815304;29;20086;-83
2023/10/27 05:44:58;;;;;;;1.08;1.08;;;;;;;-3.14;96.12;98194.16;4812338;29;20454;-81
2023/10/27 05:47:25;;;;;;;1.00;1.00;;;;;;;-3.14;95.93;98208.19;4812626;29;20501;-81
2023/10/27 05:49:57;;;;;;;0.90;0.90;;;;;;;-3.13;96.00;98207.19;4813607;29;20054;-85
2023/10/27 05:52:24;;;;;;;0.98;0.98;;;;;;;-3.13;96.21;98191.34;4799904;29;20513;-82
2023/10/27 05:54:51;;;;;;;0.80;0.80;;;;;;;-3.04;96.06;98192.09;4802908;29;20058;-84
2023/10/27 05:57:18;;;;;;;1.00;1.00;;;;;;;-3.01;96.26;98183.00;4814047;29;20054;-84
2023/10/27 05:59:45;;;;;;;0.88;0.88;;;;;;;-2.98;96.13;98167.63;4811146;29;20108;-82
2023/10/27 06:02:13;;;;;;;1.00;1.00;;;;;;;-2.94;95.77;98170.72;4817584;29;20081;-83
2023/10/27 06:04:42;;;;;;;1.15;1.15;;;;;;;-3.01;95.94;98144.25;4805074;29;20129;-83
2023/10/27 06:07:15;;;;;;;1.00;1.00;;;;;;;-2.82;95.96;98156.09;4466783;29;9999841;-81
2023/10/27 06:09:43;;;;;;;1.00;1.00;;;;;;;-2.79;95.64;98155.72;4813281;29;20569;-81
2023/10/27 06:12:11;;;;;;;0.93;0.93;;;;;;;-2.79;95.53;98154.91;4815579;29;20054;-82
2023/10/27 06:14:44;;;;;;;0.90;0.90;;;;;;;-2.89;95.23;98149.88;4814670;29;20054;-84
2023/10/27 06:17:12;;;;;;;1.10;1.10;;;;;;;-2.97;95.23;98153.41;4815927;29;20784;-83
2023/10/27 06:19:40;;;;;;;1.00;1.00;;;;;;;-2.96;95.56;98148.94;4815135;29;20061;-82
2023/10/27 06:22:09;;;;;;;0.90;0.90;;;;;;;-2.96;95.80;98138.41;4815256;29;20046;-83
2023/10/27 06:24:36;;;;;;;1.02;1.02;;;;;;;-2.99;95.89;98138.75;4813435;29;20291;-83
2023/10/27 06:27:05;;;;;;;1.00;1.00;;;;;;;-3.02;95.95;98133.84;4801262;29;20153;-82
2023/10/27 06:29:33;;;;;;;0.93;0.93;;;;;;;-2.99;96.04;98128.19;4784403;29;20085;-82
2023/10/27 06:32:01;;;;;;;1.08;1.08;;;;;;;-2.96;96.13;98133.13;4801654;29;20054;-80
2023/10/27 06:34:28;;;;;;;1.10;1.10;;;;;;;-2.93;96.30;98132.78;4803853;29;20098;-82
2023/10/27 06:36:56;;;;;;;1.10;1.10;;;;;;;-2.90;96.17;98129.78;4811677;29;20074;-83
2023/10/27 06:39:28;;;;;;;1.00;1.00;;;;;;;-2.95;96.30;98118.94;4784491;29;20055;-82
2023/10/27 06:41:55;;;;;;;1.00;1.00;;;;;;;-2.89;96.52;98126.13;4806617;29;20051;-83
2023/10/27 06:44:22;;;;;;;1.10;1.10;;;;;;;-2.91;96.42;98117.56;4808886;29;20074;-82
2023/10/27 06:46:49;;;;;;;1.00;1.00;;;;;;;-2.93;96.38;98128.31;4777830;29;20051;-83
2023/10/27 06:49:17;;;;;;;1.00;1.00;;;;;;;-2.88;96.57;98104.00;4800775;29;20115;-82
2023/10/27 06:51:53;;;;;;;0.82;0.82;;;;;;;-2.92;96.73;98097.44;4802277;29;20537;-82
2023/10/27 06:54:21;;;;;;;1.00;1.00;;;;;;;-3.00;96.71;98108.09;4782164;29;20671;-82
2023/10/27 06:56:50;;;;;;;0.90;0.90;;;;;;;-3.00;96.82;98110.72;4796989;29;20623;-82
2023/10/27 06:59:21;;;;;;;1.08;1.08;;;;;;;-2.97;96.97;98111.19;4788010;29;20061;-82
2023/10/27 07:01:48;;;;;;;0.98;0.98;;;;;;;-3.00;97.12;98116.81;4819612;29;20423;-83
2023/10/27 07:04:15;;;;;;;0.95;0.95;;;;;;;-2.96;97.23;98128.69;4819018;29;20061;-82
2023/10/27 07:06:44;;;;;;;1.00;1.00;;;;;;;-3.11;97.35;98099.59;4802235;29;20054;-81
2023/10/27 07:09:11;;;;;;;1.00;1.00;;;;;;;-3.02;97.60;98108.25;4803148;29;20066;-81
2023/10/27 07:11:38;;;;;;;0.77;0.77;;;;;;;-2.94;97.18;98123.19;4800517;29;20534;-81
2023/10/27 07:14:05;;;;;;;1.10;1.10;;;;;;;-3.00;97.30;98105.44;4810153;29;20526;-80
2023/10/27 07:16:33;;;;;;;1.08;1.08;;;;;;;-2.92;97.35;98108.81;4805237;29;20050;-81
2023/10/27 07:19:00;;;;;;;1.05;1.05;;;;;;;-2.80;97.23;98127.69;4811522;29;20085;-83
2023/10/27 07:21:27;;;;;;;1.23;1.20;;;;;;;-2.80;96.87;98114.50;4814139;29;20050;-81
2023/10/27 07:23:55;;;;;;;1.02;1.02;;;;;;;-2.82;96.48;98105.91;4805054;29;20122;-81
2023/10/27 07:26:23;;;;;;;0.90;0.90;;;;;;;-2.79;96.77;98123.22;4796413;29;20153;-82
2023/10/27 07:28:51;;;;;;;1.00;1.00;;;;;;;-2.84;96.53;98105.28;4790762;29;20146;-82
2023/10/27 07:31:19;;;;;;;1.00;1.00;;;;;;;-2.67;96.31;98116.50;4821918;29;20093;-81
2023/10/27 07:33:46;;;;;;;0.95;0.95;;;;;;;-2.60;96.35;98109.50;4810890;29;20051;-81
2023/10/27 07:36:13;;;;;;;1.00;1.00;;;;;;;-2.54;95.99;98124.59;4785038;29;20515;-84
2023/10/27 07:38:41;;;;;;;1.00;1.00;;;;;;;-2.48;95.92;98121.25;4825061;29;20085;-83
2023/10/27 07:41:12;;;;;;;0.93;0.93;;;;;;;-2.45;95.55;98101.56;4787127;29;20115;-82
2023/10/27 07:43:39;;;;;;;1.17;1.17;;;;;;;-2.28;95.23;98104.81;4788457;29;20058;-82
2023/10/27 07:46:07;;;;;;;1.30;1.20;;;;;;;-2.21;95.22;98111.81;4818140;29;20074;-82
2023/10/27 07:48:35;;;;;;;1.13;1.13;;;;;;;-2.23;94.39;98103.28;4814796;29;20604;-82
2023/10/27 07:51:03;;;;;;;1.10;1.10;;;;;;;-2.25;94.25;98105.28;4450066;29;9999635;-82
2023/10/27 07:53:59;;;;;;;1.10;1.10;;;;;;;-2.22;94.22;98104.09;4824142;29;20061;-82
2023/10/27 07:56:26;;;;;;;0.90;0.90;;;;;;;-2.33;93.91;98092.16;4819748;29;20060;-83
2023/10/27 07:58:53;;;;;;;0.80;0.80;;;;;;;-2.33;93.75;98084.25;4815542;29;20061;-83
2023/10/27 08:01:21;;;;;;;0.90;0.90;;;;;;;-2.25;93.57;98078.84;4788688;29;20069;-80
2023/10/27 08:03:49;;;;;;;1.40;1.30;;;;;;;-2.31;93.46;98089.31;4784933;29;20062;-82
2023/10/27 08:06:21;;;;;;;1.17;1.17;;;;;;;-2.27;93.23;98102.00;4819030;29;20123;-82
2023/10/27 08:08:59;;;;;;;0.90;0.90;;;;;;;-2.34;93.31;98100.28;4819205;29;20106;-82
2023/10/27 08:11:50;;;;;;;1.10;1.10;;;;;;;-2.28;93.44;98092.44;4822456;29;20483;-82
2023/10/27 08:14:17;;;;;;;0.85;0.85;;;;;;;-2.36;93.45;98095.16;4802948;29;20079;-84
2023/10/27 08:16:46;;;;;;;1.00;1.00;;;;;;;-2.35;93.43;98083.59;4818399;29;20046;-81
2023/10/27 08:19:13;;;;;;;1.00;1.00;;;;;;;-2.20;93.22;98092.31;4805733;29;20058;-82
2023/10/27 08:21:41;;;;;;;1.00;1.00;;;;;;;-2.29;93.51;98082.84;4835233;29;20050;-82
2023/10/27 08:24:08;;;;;;;1.10;1.10;;;;;;;-2.12;93.46;98085.28;4804627;29;20086;-81
2023/10/27 08:26:36;;;;;;;0.98;0.98;;;;;;;-2.16;93.28;98084.81;4839211;29;20113;-82
2023/10/27 08:29:03;;;;;;;1.02;1.02;;;;;;;-2.14;93.15;98088.13;4821822;29;20157;-83
2023/10/27 08:31:32;;;;;;;1.08;1.08;;;;;;;-2.12;93.08;98088.75;4825462;29;20065;-82
2023/10/27 08:34:00;;;;;;;0.93;0.93;;;;;;;-2.15;93.20;98072.41;4795027;29;20054;-83
2023/10/27 08:36:28;;;;;;;1.00;1.00;;;;;;;-2.12;92.74;98070.25;4796258;29;20064;-84
2023/10/27 08:38:55;;;;;;;1.10;1.10;;;;;;;-2.10;93.26;98062.09;4806668;29;20478;-81
2023/10/27 08:41:28;;;;;;;1.00;1.00;;;;;;;-2.04;92.76;98071.97;4829004;29;20135;-84
2023/10/27 08:43:55;;;;;;;1.10;1.10;;;;;;;-2.07;92.38;98061.75;4820060;29;20054;-83
2023/10/27 08:46:32;;;;;;;1.00;1.00;;;;;;;-2.09;92.47;98067.22;4789743;29;20200;-83
2023/10/27 08:48:59;;;;;;;1.00;1.00;;;;;;;-2.09;92.66;98071.69;4813565;29;20120;-83
2023/10/27 08:51:26;;;;;;;0.90;0.90;;;;;;;-2.09;92.68;98043.44;4790274;29;20473;-83
2023/10/27 08:53:57;;;;;;;1.13;1.13;;;;;;;-2.08;92.54;98063.56;4775819;29;20078;-81
2023/10/27 08:56:25;;;;;;;0.90;0.90;;;;;;;-2.07;92.26;98067.03;4799026;29;20054;-82
2023/10/27 08:58:52;;;;;;;0.85;0.85;;;;;;;-2.04;92.10;98062.19;4811566;29;20058;-82
2023/10/27 09:01:19;;;;;;;0.95;0.95;;;;;;;-2.00;92.30;98070.56;4810077;29;20055;-82
2023/10/27 09:04:05;;;;;;;0.90;0.90;;;;;;;-2.00;92.16;98073.19;4816106;29;20054;-83
2023/10/27 09:06:38;;;;;;;1.00;1.00;;;;;;;-1.96;92.33;98077.94;4801800;29;20046;-83
2023/10/27 09:09:10;;;;;;;1.10;1.10;;;;;;;-2.01;92.07;98064.47;4805270;29;20145;-83
2023/10/27 09:11:48;;;;;;;1.00;1.00;;;;;;;-1.97;92.26;98071.03;4804695;29;20054;-82
2023/10/27 09:14:27;;;;;;;1.30;1.20;;;;;;;-1.98;92.56;98066.72;4807449;29;20141;-81
2023/10/27 09:17:35;;;;;;;0.90;0.90;;;;;;;-2.03;92.43;98049.78;4798316;29;20054;-82
2023/10/27 09:20:09;;;;;;;0.98;0.98;;;;;;;-1.99;92.90;98069.56;4805230;29;20430;-83
2023/10/27 09:23:00;;;;;;;1.00;1.00;;;;;;;-1.93;92.77;98060.06;4791179;29;20054;-82
2023/10/27 09:25:34;;;;;;;0.93;0.93;;;;;;;-1.90;92.90;98054.41;4804724;29;20066;-84
2023/10/27 09:28:03;;;;;;;0.85;0.85;;;;;;;-1.83;92.84;98050.81;4819411;29;20430;-82
2023/10/27 09:30:42;;;;;;;1.05;1.05;;;;;;;-1.83;93.00;98036.75;4793579;29;20621;-80
2023/10/27 09:36:39;;;;;;;0.90;0.90;;;;;;;-1.81;93.32;98032.94;3815936;24;20063;-83
2023/10/27 09:39:06;;;;;;;0.90;0.90;;;;;;;-1.77;93.30;98030.75;4793467;29;20499;-82
2023/10/27 09:41:34;;;;;;;1.10;1.10;;;;;;;-1.80;93.62;98020.50;4795290;29;20553;-83
2023/10/27 09:44:01;;;;;;;1.00;1.00;;;;;;;-1.85;93.74;98026.41;4775736;29;20153;-81
2023/10/27 09:46:29;;;;;;;1.17;1.17;;;;;;;-1.90;94.12;98018.22;4780604;29;20051;-83
2023/10/27 09:48:58;;;;;;;0.90;0.90;;;;;;;-1.91;94.23;98015.75;4796543;29;20125;-83
2023/10/27 09:51:41;;;;;;;1.15;1.15;;;;;;;-2.05;94.14;98005.03;4790319;29;20526;-82
2023/10/27 09:54:09;;;;;;;1.08;1.08;;;;;;;-2.04;94.77;98029.66;4808964;29;20507;-81
2023/10/27 09:56:36;;;;;;;1.13;1.13;;;;;;;-2.05;94.86;98031.47;4813454;29;20112;-82
2023/10/27 09:59:04;;;;;;;0.98;0.98;;;;;;;-2.03;95.31;98018.06;4820027;29;20050;-85
2023/10/27 10:01:31;;;;;;;0.98;0.98;;;;;;;-2.00;95.21;98005.28;4785115;29;20119;-84
2023/10/27 10:03:58;;;;;;;1.10;1.10;;;;;;;-1.92;95.73;98012.28;4809460;29;20511;-83
2023/10/27 10:06:29;;;;;;;0.90;0.90;;;;;;;-1.90;95.62;98010.28;4800939;29;20051;-84
2023/10/27 10:09:18;;;;;;;0.95;0.95;;;;;;;-1.86;95.62;98014.16;4801222;29;20062;-84
2023/10/27 10:11:55;;;;;;;1.10;1.10;;;;;;;-1.82;95.49;98011.97;4809497;29;20427;-83
2023/10/27 10:14:40;;;;;;;0.88;0.88;;;;;;;-1.79;95.68;98008.94;4801071;29;20082;-83
2023/10/27 10:17:28;;;;;;;;;;;;;;;-1.80;95.54;98007.28;4773969;30;20083;-82
2023/10/27 10:19:56;;;;;;;0.80;0.80;;;;;;;-1.98;95.63;97990.03;4779435;29;19929;-85
2023/10/27 10:22:58;;;;;;;1.25;1.20;;;;;;;-1.91;95.65;98005.16;4801985;29;20403;-83
2023/10/27 10:25:26;;;;;;;0.80;0.80;;;;;;;-2.00;95.80;97981.50;4734320;30;20056;-83
2023/10/27 10:28:10;;;;;;;0.93;0.93;;;;;;;-2.00;96.40;97985.94;4736528;30;20567;-83
2023/10/27 10:30:39;;;;;;;1.05;1.05;;;;;;;-2.01;96.42;97989.59;4767648;30;20523;-83
2023/10/27 10:33:19;;;;;;;1.00;1.00;;;;;;;-2.05;96.70;97983.03;4773130;30;20520;-83
2023/10/27 10:35:47;;;;;;;0.90;0.90;;;;;;;-2.03;97.21;97986.31;4746171;30;20083;-84
2023/10/27 10:38:23;;;;;;;1.08;1.08;;;;;;;-2.06;97.34;97976.94;4755993;30;20071;-83
2023/10/27 10:40:58;;;;;;;0.90;0.90;;;;;;;-2.07;97.29;97969.22;4768465;30;20153;-83
2023/10/27 10:43:47;;;;;;;0.90;0.90;;;;;;;-1.99;97.51;97974.38;4749771;30;20534;-83
2023/10/27 10:46:14;;;;;;;1.05;1.05;;;;;;;-2.01;97.49;97960.53;4765386;30;20143;-82
2023/10/27 10:48:44;;;;;;;0.73;0.73;;;;;;;-2.02;97.77;97966.84;4780710;29;20325;-82
2023/10/27 10:51:26;;;;;;;0.93;0.93;;;;;;;-2.04;97.57;97963.56;4757465;30;20063;-83
2023/10/27 10:53:53;;;;;;;0.90;0.90;;;;;;;-2.02;97.47;97956.25;4769332;30;20627;-83
2023/10/27 10:56:24;;;;;;;0.80;0.80;;;;;;;-2.04;97.49;97956.44;4782933;30;20063;-83
2023/10/27 10:58:51;;;;;;;1.13;1.13;;;;;;;-2.04;97.65;97952.97;4780939;30;20051;-83
2023/10/27 11:01:23;;;;;;;0.80;0.80;;;;;;;-1.99;97.91;97955.88;4786313;29;20063;-82
2023/10/27 11:03:52;;;;;;;0.90;0.90;;;;;;;-1.96;97.83;97956.28;4815299;29;20061;-84
2023/10/27 11:06:21;;;;;;;1.08;1.08;;;;;;;-1.93;97.84;97939.22;4810659;29;20503;-83
2023/10/27 11:08:49;;;;;;;0.90;0.90;;;;;;;-1.98;98.14;97944.28;4808342;29;20073;-83
2023/10/27 11:11:19;;;;;;;0.90;0.90;;;;;;;-2.02;98.23;97943.84;4811714;29;20062;-85
2023/10/27 11:13:47;;;;;;;0.82;0.82;;;;;;;-1.93;98.53;97938.41;4798752;29;20055;-85
2023/10/27 11:16:18;;;;;;;1.00;1.00;;;;;;;-1.95;98.57;97938.59;4810698;29;20414;-83
2023/10/27 11:18:47;;;;;;;0.98;0.98;;;;;;;-1.96;98.50;97927.19;4812312;29;20100;-85
2023/10/27 11:21:27;;;;;;;1.00;1.00;;;;;;;-1.94;98.53;97931.50;4802064;29;20098;-83
2023/10/27 11:23:56;;;;;;;0.93;0.93;;;;;;;-1.96;98.72;97923.75;4801111;29;20061;-85
2023/10/27 11:26:25;;;;;;;1.05;1.05;;;;;;;-1.91;98.88;97931.13;4797043;29;20081;-84
2023/10/27 11:28:55;;;;;;;0.80;0.80;;;;;;;-1.88;98.84;97917.50;4812094;29;20054;-83
2023/10/27 11:31:22;;;;;;;0.85;0.85;;;;;;;-1.85;98.98;97914.47;4818266;29;20054;-82
2023/10/27 11:34:06;;;;;;;1.00;1.00;;;;;;;-1.86;98.97;97913.66;4801274;29;20056;-84
2023/10/27 11:36:40;;;;;;;1.10;1.10;;;;;;;-1.79;99.38;97913.72;4800922;29;20111;-84
2023/10/27 11:39:15;;;;;;;1.00;1.00;;;;;;;-1.76;99.11;97908.03;4812900;29;20062;-83
2023/10/27 11:41:47;;;;;;;;;;;;;;;-1.75;99.30;97902.56;4785837;29;20051;-83
2023/10/27 11:44:15;;;;;;;0.88;0.88;;;;;;;-1.76;99.13;97903.56;4814017;29;19929;-85
2023/10/27 11:46:46;;;;;;;0.93;0.93;;;;;;;-1.72;99.34;97887.28;4776873;29;20127;-84